createdAt,value
2022-11-05T00:02:27.451Z,93.95
2022-11-05T00:05:14.090Z,93.69
2022-11-05T00:08:01.514Z,93.58
2022-11-05T00:10:32.358Z,93.11
2022-11-05T00:13:18.253Z,93.07
2022-11-05T00:16:03.555Z,92.98
2022-11-05T00:18:31.675Z,92.75
2022-11-05T00:21:00.775Z,93.07
2022-11-05T00:23:46.650Z,92.94
2022-11-05T00:26:14.567Z,93.01
2022-11-05T00:28:43.852Z,92.61
2022-11-05T00:31:14.498Z,92.63
2022-11-05T00:33:43.910Z,92.70
2022-11-05T00:36:12.842Z,92.12
2022-11-05T00:38:40.601Z,92.32
2022-11-05T00:41:08.817Z,92.64
2022-11-05T00:43:53.976Z,92.55
2022-11-05T00:46:21.714Z,92.90
2022-11-05T00:49:07.197Z,92.92
2022-11-05T00:51:36.292Z,92.79
2022-11-05T00:54:04.071Z,92.72
2022-11-05T00:56:31.884Z,93.06
2022-11-05T00:58:59.645Z,93.19
2022-11-05T01:01:27.439Z,93.12
2022-11-05T01:03:55.242Z,93.22
2022-11-05T01:06:23.036Z,92.92
2022-11-05T01:08:52.109Z,92.60
2022-11-05T01:11:33.968Z,92.47
2022-11-05T01:14:02.274Z,92.46
2022-11-05T01:16:30.838Z,92.58
2022-11-05T01:18:58.621Z,92.60
2022-11-05T01:21:26.343Z,92.78
2022-11-05T01:23:55.727Z,92.71
2022-11-05T01:26:23.397Z,92.71
2022-11-05T01:28:52.139Z,93.89
2022-11-05T01:31:20.046Z,95.02
2022-11-05T01:33:47.862Z,94.75
2022-11-05T01:36:15.654Z,94.21
2022-11-05T01:38:43.427Z,92.80
2022-11-05T01:41:12.535Z,93.37
2022-11-05T01:43:49.346Z,92.57
2022-11-05T01:46:20.845Z,92.21
2022-11-05T01:48:52.245Z,92.66
2022-11-05T01:51:25.267Z,91.70
2022-11-05T01:54:00.590Z,90.77
2022-11-05T01:56:35.357Z,90.66
2022-11-05T01:59:07.649Z,90.39
2022-11-05T02:01:35.680Z,90.69
2022-11-05T02:04:08.210Z,90.15
2022-11-05T02:06:39.266Z,90.70
2022-11-05T02:09:11.145Z,90.01
2022-11-05T02:11:40.324Z,90.16
2022-11-05T02:14:08.127Z,90.58
2022-11-05T02:16:41.266Z,89.46
2022-11-05T02:19:36.663Z,90.00
2022-11-05T02:22:22.497Z,90.63
2022-11-05T02:25:02.290Z,89.73
2022-11-05T02:27:57.802Z,90.30
2022-11-05T02:30:37.630Z,92.07
2022-11-05T02:33:14.845Z,91.07
2022-11-05T02:36:01.423Z,90.67
2022-11-05T02:38:38.855Z,90.63
2022-11-05T02:41:14.850Z,90.00
2022-11-05T02:43:52.237Z,89.55
2022-11-05T02:46:30.692Z,89.90
2022-11-05T02:49:06.875Z,90.70
2022-11-05T02:51:40.096Z,90.49
2022-11-05T02:54:13.019Z,89.91
2022-11-05T02:56:43.385Z,91.23
2022-11-05T02:59:11.123Z,91.34
2022-11-05T03:01:43.234Z,90.47
2022-11-05T03:04:13.449Z,90.49
2022-11-05T03:06:56.985Z,91.00
2022-11-05T03:09:46.698Z,91.05
2022-11-05T03:12:27.689Z,91.75
2022-11-05T03:15:03.986Z,89.70
2022-11-05T03:17:39.853Z,90.19
2022-11-05T03:20:17.541Z,90.34
2022-11-05T03:22:51.727Z,90.83
2022-11-05T03:25:23.652Z,89.37
2022-11-05T03:27:56.785Z,90.01
2022-11-05T03:30:25.396Z,91.04
2022-11-05T03:32:59.239Z,90.78
2022-11-05T03:35:29.736Z,90.82
2022-11-05T03:38:02.025Z,89.39
2022-11-05T03:40:34.411Z,89.73
2022-11-05T03:43:04.803Z,89.54
2022-11-05T03:45:37.710Z,89.42
2022-11-05T03:48:10.406Z,90.00
2022-11-05T03:50:41.791Z,88.46
2022-11-05T03:53:16.949Z,88.67
2022-11-05T03:55:51.345Z,89.39
2022-11-05T03:58:20.845Z,89.30
2022-11-05T04:00:49.879Z,88.59
2022-11-05T04:03:18.985Z,89.03
2022-11-05T04:06:07.303Z,88.91
2022-11-05T04:08:52.519Z,90.01
2022-11-05T04:11:38.092Z,89.73
2022-11-05T04:14:05.816Z,90.07
2022-11-05T04:16:51.305Z,88.52
2022-11-05T04:19:41.482Z,89.71
2022-11-05T04:22:26.900Z,88.32
2022-11-05T04:24:54.649Z,88.11
2022-11-05T04:27:22.402Z,87.20
2022-11-05T04:30:07.896Z,87.77
2022-11-05T04:32:35.667Z,88.76
2022-11-05T04:35:04.971Z,88.25
2022-11-05T04:37:32.527Z,87.90
2022-11-05T04:40:00.261Z,88.65
2022-11-05T04:42:29.268Z,88.68
2022-11-05T04:44:57.016Z,88.77
2022-11-05T04:47:24.718Z,88.92
2022-11-05T04:49:53.206Z,87.66
2022-11-05T04:52:22.332Z,87.43
2022-11-05T04:54:50.070Z,88.37
2022-11-05T04:57:17.815Z,87.82
2022-11-05T04:59:45.541Z,88.27
2022-11-05T05:02:13.362Z,88.70
2022-11-05T05:04:41.157Z,88.70
2022-11-05T05:07:08.894Z,88.50
2022-11-05T05:09:38.023Z,89.02
2022-11-05T05:12:06.262Z,88.00
2022-11-05T05:14:34.033Z,89.41
2022-11-05T05:17:01.764Z,88.59
2022-11-05T05:19:30.702Z,87.73
2022-11-05T05:21:57.445Z,88.41
2022-11-05T05:24:25.446Z,88.61
2022-11-05T05:26:54.545Z,88.20
2022-11-05T05:29:22.276Z,88.44
2022-11-05T05:31:50.022Z,88.77
2022-11-05T05:34:17.790Z,89.02
2022-11-05T05:36:45.497Z,89.15
2022-11-05T05:39:14.223Z,89.09
2022-11-05T05:41:42.040Z,89.19
2022-11-05T05:44:11.149Z,89.37
2022-11-05T05:46:39.024Z,89.05
2022-11-05T05:49:12.139Z,88.62
2022-11-05T05:51:40.314Z,88.56
2022-11-05T05:54:08.089Z,90.12
2022-11-05T05:56:35.820Z,88.82
2022-11-05T05:59:03.657Z,90.45
2022-11-05T06:01:32.760Z,89.54
2022-11-05T06:04:00.573Z,89.40
2022-11-05T06:06:28.481Z,89.24
2022-11-05T06:08:56.985Z,87.91
2022-11-05T06:11:25.314Z,89.41
2022-11-05T06:13:53.126Z,89.28
2022-11-05T06:16:21.015Z,90.07
2022-11-05T06:18:50.467Z,88.25
2022-11-05T06:21:19.203Z,88.84
2022-11-05T06:23:48.281Z,89.24
2022-11-05T06:26:18.488Z,89.92
2022-11-05T06:28:46.693Z,89.23
2022-11-05T06:31:15.913Z,88.69
2022-11-05T06:33:43.717Z,90.09
2022-11-05T06:36:15.856Z,90.30
2022-11-05T06:38:43.661Z,89.77
2022-11-05T06:41:11.616Z,89.50
2022-11-05T06:43:39.821Z,88.18
2022-11-05T06:46:07.978Z,87.12
2022-11-05T06:48:36.231Z,86.76
2022-11-05T06:51:04.681Z,86.50
2022-11-05T06:53:34.313Z,87.09
2022-11-05T06:56:05.492Z,86.97
2022-11-05T06:58:33.867Z,86.56
2022-11-05T07:01:02.909Z,85.69
2022-11-05T07:03:31.100Z,86.40
2022-11-05T07:06:00.638Z,85.55
2022-11-05T07:08:28.925Z,85.86
2022-11-05T07:10:58.053Z,85.35
2022-11-05T07:13:25.796Z,85.14
2022-11-05T07:15:53.589Z,85.56
2022-11-05T07:18:21.377Z,85.40
2022-11-05T07:20:49.227Z,84.50
2022-11-05T07:23:17.557Z,83.11
2022-11-05T07:25:45.354Z,78.68
2022-11-05T07:28:15.027Z,77.30
2022-11-05T07:30:42.810Z,73.28
2022-11-05T07:33:10.830Z,72.48
2022-11-05T07:35:38.734Z,70.82
2022-11-05T07:38:06.456Z,70.43
2022-11-05T07:40:34.223Z,69.92
2022-11-05T07:43:02.875Z,68.08
2022-11-05T07:45:32.666Z,66.91
2022-11-05T07:48:02.100Z,66.13
2022-11-05T07:50:32.636Z,63.79
2022-11-05T07:53:01.480Z,61.53
2022-11-05T07:55:29.562Z,61.55
2022-11-05T07:57:57.567Z,62.39
2022-11-05T08:00:26.847Z,61.91
2022-11-05T08:03:09.375Z,62.95
2022-11-05T08:05:39.596Z,62.74
2022-11-05T08:08:08.775Z,63.20
2022-11-05T08:10:36.435Z,62.52
2022-11-05T08:13:04.636Z,62.17
2022-11-05T08:15:32.661Z,63.21
2022-11-05T08:18:03.125Z,62.58
2022-11-05T08:20:31.606Z,61.92
2022-11-05T08:22:59.657Z,60.26
2022-11-05T08:25:28.418Z,60.22
2022-11-05T08:27:57.334Z,60.44
2022-11-05T08:30:25.604Z,59.11
2022-11-05T08:32:57.618Z,58.28
2022-11-05T08:35:27.010Z,58.72
2022-11-05T08:37:58.625Z,59.16
2022-11-05T08:40:26.904Z,60.07
2022-11-05T08:42:57.684Z,59.41
2022-11-05T08:45:25.973Z,57.74
2022-11-05T08:47:59.764Z,57.49
2022-11-05T08:50:28.905Z,57.27
2022-11-05T08:52:56.596Z,56.91
2022-11-05T08:55:24.545Z,56.85
2022-11-05T08:57:56.214Z,58.74
2022-11-05T09:00:24.107Z,58.38
2022-11-05T09:02:51.910Z,58.10
2022-11-05T09:05:19.706Z,59.52
2022-11-05T09:07:48.786Z,57.86
2022-11-05T09:10:16.648Z,58.16
2022-11-05T09:12:44.953Z,56.66
2022-11-05T09:15:12.745Z,56.23
2022-11-05T09:17:41.297Z,54.39
2022-11-05T09:20:12.170Z,54.21
2022-11-05T09:22:43.288Z,54.79
2022-11-05T09:25:12.870Z,55.40
2022-11-05T09:27:40.648Z,55.58
2022-11-05T09:30:10.604Z,54.55
2022-11-05T09:32:38.387Z,52.94
2022-11-05T09:35:06.900Z,52.92
2022-11-05T09:37:34.962Z,53.64
2022-11-05T09:40:02.776Z,53.89
2022-11-05T09:42:37.786Z,52.53
2022-11-05T09:45:11.026Z,54.36
2022-11-05T09:47:43.713Z,53.78
2022-11-05T09:50:17.130Z,54.41
2022-11-05T09:52:45.205Z,55.51
2022-11-05T09:55:21.974Z,59.02
2022-11-05T09:57:55.517Z,61.05
2022-11-05T10:00:23.771Z,61.20
2022-11-05T10:02:56.436Z,59.77
2022-11-05T10:05:26.458Z,58.72
2022-11-05T10:07:58.779Z,58.17
2022-11-05T10:10:39.404Z,57.83
2022-11-05T10:13:15.919Z,58.03
2022-11-05T10:15:52.935Z,58.23
2022-11-05T10:18:25.662Z,56.51
2022-11-05T10:20:53.491Z,56.40
2022-11-05T10:23:23.230Z,56.58
2022-11-05T10:25:55.047Z,54.67
2022-11-05T10:28:27.411Z,54.26
2022-11-05T10:30:59.561Z,53.50
2022-11-05T10:33:31.971Z,55.22
2022-11-05T10:36:05.107Z,56.33
2022-11-05T10:38:33.526Z,53.28
2022-11-05T10:41:15.286Z,53.32
2022-11-05T10:43:50.571Z,54.59
2022-11-05T10:46:32.470Z,58.76
2022-11-05T10:49:23.274Z,61.51
2022-11-05T10:51:56.569Z,63.88
2022-11-05T10:54:27.861Z,64.87
2022-11-05T10:56:55.643Z,65.58
2022-11-05T10:59:27.020Z,66.31
2022-11-05T11:02:00.682Z,66.76
2022-11-05T11:04:36.474Z,66.74
2022-11-05T11:07:05.971Z,67.16
2022-11-05T11:09:37.519Z,66.81
2022-11-05T11:12:08.373Z,68.04
2022-11-05T11:14:37.484Z,68.72
2022-11-05T11:17:26.719Z,68.69
2022-11-05T11:20:20.859Z,69.29
2022-11-05T11:23:01.250Z,69.17
2022-11-05T11:25:30.948Z,68.04
2022-11-05T11:28:03.734Z,69.09
2022-11-05T11:30:33.764Z,68.73
2022-11-05T11:33:12.336Z,68.77
2022-11-05T11:35:46.676Z,69.52
2022-11-05T11:38:16.845Z,69.04
2022-11-05T11:40:45.291Z,68.98
2022-11-05T11:43:24.823Z,69.15
2022-11-05T11:45:59.371Z,70.07
2022-11-05T11:48:31.327Z,69.28
2022-11-05T11:50:59.922Z,68.35
2022-11-05T11:53:30.928Z,68.70
2022-11-05T11:56:02.135Z,68.57
2022-11-05T11:58:38.945Z,68.95
2022-11-05T12:01:28.101Z,68.11
2022-11-05T12:03:58.178Z,68.40
2022-11-05T12:06:34.335Z,67.40
2022-11-05T12:09:09.370Z,66.33
2022-11-05T12:11:44.753Z,65.20
2022-11-05T12:14:24.748Z,64.10
2022-11-05T12:17:07.771Z,63.77
2022-11-05T12:19:58.011Z,62.57
2022-11-05T12:22:36.502Z,60.49
2022-11-05T12:25:15.453Z,58.42
2022-11-05T12:28:02.203Z,57.78
2022-11-05T12:30:37.494Z,56.52
2022-11-05T12:33:18.157Z,56.75
2022-11-05T12:35:58.190Z,56.13
2022-11-05T12:38:39.406Z,56.58
2022-11-05T12:41:17.504Z,56.59
2022-11-05T12:43:57.748Z,56.70
2022-11-05T12:46:30.217Z,56.61
2022-11-05T12:49:30.785Z,56.08
2022-11-05T12:52:10.490Z,56.39
2022-11-05T12:54:54.191Z,55.32
2022-11-05T12:57:24.010Z,56.51
2022-11-05T12:59:56.612Z,58.42
2022-11-05T13:02:31.460Z,58.82
2022-11-05T13:05:04.644Z,60.60
2022-11-05T13:07:35.302Z,61.20
2022-11-05T13:10:09.115Z,61.43
2022-11-05T13:12:41.862Z,61.09
2022-11-05T13:15:19.548Z,62.38
2022-11-05T13:17:52.666Z,62.40
2022-11-05T13:20:24.935Z,62.99
2022-11-05T13:22:59.096Z,63.74
2022-11-05T13:25:29.724Z,64.12
2022-11-05T13:28:07.670Z,64.68
2022-11-05T13:30:38.314Z,64.69
2022-11-05T13:33:16.588Z,64.86
2022-11-05T13:35:49.552Z,65.28
2022-11-05T13:38:42.175Z,65.23
2022-11-05T13:41:26.124Z,65.76
2022-11-05T13:44:14.050Z,65.45
2022-11-05T13:46:58.676Z,66.18
2022-11-05T13:49:52.902Z,65.75
2022-11-05T13:52:39.073Z,66.50
2022-11-05T13:55:33.404Z,66.79
2022-11-05T13:58:17.218Z,66.49
2022-11-05T14:00:56.913Z,66.74
2022-11-05T14:03:24.991Z,67.02
2022-11-05T14:06:03.275Z,67.13
2022-11-05T14:08:38.578Z,67.06
2022-11-05T14:11:18.673Z,67.02
2022-11-05T14:13:50.811Z,67.61
2022-11-05T14:16:20.696Z,67.69
2022-11-05T14:18:53.944Z,67.72
2022-11-05T14:21:32.570Z,67.98
2022-11-05T14:24:23.794Z,68.11
2022-11-05T14:27:24.723Z,67.91
2022-11-05T14:29:52.491Z,68.18
2022-11-05T14:32:28.112Z,68.67
2022-11-05T14:35:01.673Z,68.93
2022-11-05T14:37:34.633Z,69.06
2022-11-05T14:40:27.052Z,69.01
2022-11-05T14:42:57.103Z,69.21
2022-11-05T14:45:30.180Z,69.23
2022-11-05T14:48:00.376Z,69.49
2022-11-05T14:50:36.644Z,69.89
2022-11-05T14:53:12.505Z,70.21
2022-11-05T14:55:44.595Z,70.29
2022-11-05T14:58:31.423Z,70.35
2022-11-05T15:01:00.317Z,70.44
2022-11-05T15:04:00.792Z,70.57
2022-11-05T15:06:31.709Z,70.75
2022-11-05T15:09:14.477Z,70.80
2022-11-05T15:11:49.670Z,70.96
2022-11-05T15:14:23.935Z,71.34
2022-11-05T15:16:54.240Z,71.39
2022-11-05T15:19:27.192Z,71.51
2022-11-05T15:21:58.683Z,71.65
2022-11-05T15:24:28.699Z,72.01
2022-11-05T15:27:05.457Z,71.94
2022-11-05T15:29:34.605Z,72.47
2022-11-05T15:32:02.923Z,72.62
2022-11-05T15:34:32.962Z,72.52
2022-11-05T15:37:02.563Z,72.85
2022-11-05T15:39:33.527Z,73.21
2022-11-05T15:42:07.203Z,73.35
2022-11-05T15:44:40.380Z,73.55
2022-11-05T15:47:14.236Z,73.70
2022-11-05T15:49:43.424Z,74.12
2022-11-05T15:52:16.213Z,74.43
2022-11-05T15:54:44.743Z,74.79
2022-11-05T15:57:31.930Z,75.11
2022-11-05T15:59:59.801Z,75.19
2022-11-05T16:02:32.078Z,75.65
2022-11-05T16:05:01.567Z,75.70
2022-11-05T16:07:30.070Z,75.78
2022-11-05T16:10:00.201Z,75.70
2022-11-05T16:12:38.197Z,75.89
2022-11-05T16:15:21.152Z,76.01
2022-11-05T16:17:54.505Z,76.14
2022-11-05T16:20:25.860Z,76.32
2022-11-05T16:22:56.596Z,76.36
2022-11-05T16:25:37.206Z,76.43
2022-11-05T16:28:18.397Z,76.71
2022-11-05T16:30:53.916Z,76.70
2022-11-05T16:33:21.887Z,76.85
2022-11-05T16:35:50.732Z,77.01
2022-11-05T16:38:19.697Z,77.31
2022-11-05T16:40:47.563Z,77.35
2022-11-05T16:43:20.661Z,77.51
2022-11-05T16:45:48.655Z,77.69
2022-11-05T16:48:17.478Z,77.87
2022-11-05T16:50:46.272Z,78.06
2022-11-05T16:53:14.096Z,78.04
2022-11-05T16:55:43.794Z,78.13
2022-11-05T16:58:21.453Z,78.41
2022-11-05T17:00:50.723Z,78.41
2022-11-05T17:03:18.791Z,78.63
2022-11-05T17:05:47.532Z,78.60
2022-11-05T17:08:15.535Z,78.58
2022-11-05T17:10:43.566Z,78.60
2022-11-05T17:13:15.219Z,78.68
2022-11-05T17:15:46.603Z,78.84
2022-11-05T17:18:18.553Z,78.92
2022-11-05T17:20:48.368Z,79.04
2022-11-05T17:23:16.881Z,79.22
2022-11-05T17:25:47.523Z,79.36
2022-11-05T17:28:16.636Z,79.38
2022-11-05T17:30:52.351Z,79.34
2022-11-05T17:33:22.626Z,79.50
2022-11-05T17:35:51.229Z,79.60
2022-11-05T17:38:19.745Z,79.60
2022-11-05T17:40:47.822Z,79.70
2022-11-05T17:43:16.343Z,79.75
2022-11-05T17:45:47.231Z,79.85
2022-11-05T17:48:15.606Z,79.91
2022-11-05T17:50:44.075Z,79.99
2022-11-05T17:53:13.023Z,80.15
2022-11-05T17:55:41.602Z,80.17
2022-11-05T17:58:09.745Z,80.14
2022-11-05T18:00:38.366Z,80.18
2022-11-05T18:03:07.743Z,80.01
2022-11-05T18:05:35.633Z,79.99
2022-11-05T18:08:03.766Z,79.96
2022-11-05T18:10:31.590Z,79.98
2022-11-05T18:12:59.372Z,80.02
2022-11-05T18:15:27.305Z,79.83
2022-11-05T18:17:55.095Z,79.82
2022-11-05T18:20:24.342Z,79.64
2022-11-05T18:22:52.253Z,79.66
2022-11-05T18:25:20.184Z,79.51
2022-11-05T18:27:48.049Z,79.24
2022-11-05T18:30:16.011Z,79.07
2022-11-05T18:32:44.533Z,79.15
2022-11-05T18:35:13.197Z,79.12
2022-11-05T18:37:42.405Z,79.07
2022-11-05T18:40:11.794Z,78.70
2022-11-05T18:42:39.540Z,78.30
2022-11-05T18:45:08.205Z,78.03
2022-11-05T18:47:35.999Z,78.20
2022-11-05T18:50:04.549Z,77.99
2022-11-05T18:52:33.085Z,78.21
2022-11-05T18:55:02.273Z,77.89
2022-11-05T18:57:30.236Z,77.80
2022-11-05T18:59:58.167Z,77.53
2022-11-05T19:02:26.252Z,77.34
2022-11-05T19:05:27.375Z,77.35
2022-11-05T19:07:41.993Z,77.25
2022-11-05T19:10:11.326Z,77.28
2022-11-05T19:12:38.970Z,77.50
2022-11-05T19:15:08.079Z,77.60
2022-11-05T19:17:36.291Z,77.63
2022-11-05T19:20:05.160Z,77.58
2022-11-05T19:22:33.344Z,77.42
2022-11-05T19:25:01.173Z,77.75
2022-11-05T19:27:30.357Z,77.70
2022-11-05T19:29:58.136Z,77.53
2022-11-05T19:32:25.948Z,77.61
2022-11-05T19:34:53.731Z,77.67
2022-11-05T19:37:21.506Z,77.49
2022-11-05T19:39:49.361Z,77.33
2022-11-05T19:42:17.242Z,77.29
2022-11-05T19:44:46.402Z,77.52
2022-11-05T19:47:14.157Z,77.41
2022-11-05T19:49:41.948Z,77.42
2022-11-05T19:52:09.761Z,77.69
2022-11-05T19:54:38.407Z,77.83
2022-11-05T19:57:06.617Z,77.71
2022-11-05T19:59:34.406Z,77.50
2022-11-05T20:02:03.655Z,77.79
2022-11-05T20:04:31.453Z,77.77
2022-11-05T20:06:59.461Z,77.66
2022-11-05T20:09:28.268Z,77.76
2022-11-05T20:11:57.006Z,77.73
2022-11-05T20:14:26.163Z,77.98
2022-11-05T20:16:54.677Z,78.15
2022-11-05T20:19:24.590Z,78.19
2022-11-05T20:21:52.812Z,78.10
2022-11-05T20:24:25.154Z,78.22
2022-11-05T20:26:54.308Z,78.44
2022-11-05T20:29:22.908Z,78.53
2022-11-05T20:31:51.206Z,78.33
2022-11-05T20:34:19.035Z,78.38
2022-11-05T20:36:48.175Z,78.36
2022-11-05T20:39:16.861Z,78.50
2022-11-05T20:41:44.913Z,78.74
2022-11-05T20:44:12.726Z,78.86
2022-11-05T20:46:40.509Z,78.71
2022-11-05T20:49:08.491Z,78.85
2022-11-05T20:51:36.328Z,79.15
2022-11-05T20:54:05.896Z,79.16
2022-11-05T20:56:35.773Z,79.16
2022-11-05T20:59:04.532Z,79.19
2022-11-05T21:01:34.554Z,79.45
2022-11-05T21:04:02.848Z,79.50
2022-11-05T21:06:30.910Z,79.61
2022-11-05T21:08:59.021Z,79.53
2022-11-05T21:11:28.170Z,79.50
2022-11-05T21:13:55.987Z,79.72
2022-11-05T21:16:24.221Z,79.75
2022-11-05T21:18:52.030Z,79.79
2022-11-05T21:21:21.415Z,79.88
2022-11-05T21:23:49.206Z,79.91
2022-11-05T21:26:18.574Z,80.00
2022-11-05T21:28:47.548Z,80.03
2022-11-05T21:31:15.374Z,80.16
2022-11-05T21:33:43.113Z,80.28
2022-11-05T21:36:12.771Z,80.27
2022-11-05T21:38:41.465Z,80.31
2022-11-05T21:41:11.465Z,80.37
2022-11-05T21:43:40.999Z,80.38
2022-11-05T21:46:12.166Z,80.59
2022-11-05T21:48:40.331Z,80.33
2022-11-05T21:51:25.727Z,80.44
2022-11-05T21:54:10.936Z,80.61
2022-11-05T21:56:56.588Z,80.74
2022-11-05T21:59:43.204Z,80.75
2022-11-05T22:02:14.366Z,80.97
2022-11-05T22:04:43.845Z,81.02
2022-11-05T22:07:12.184Z,81.10
2022-11-05T22:09:40.349Z,81.21
2022-11-05T22:12:09.140Z,81.01
2022-11-05T22:14:36.962Z,80.87
2022-11-05T22:17:05.189Z,80.96
2022-11-05T22:19:34.780Z,80.86
2022-11-05T22:22:02.836Z,80.83
2022-11-05T22:24:31.903Z,80.79
2022-11-05T22:27:00.141Z,80.65
2022-11-05T22:29:28.570Z,80.69
2022-11-05T22:31:57.039Z,80.71
2022-11-05T22:34:25.348Z,80.61
2022-11-05T22:36:54.466Z,80.43
2022-11-05T22:39:23.013Z,80.57
2022-11-05T22:41:54.308Z,80.52
2022-11-05T22:44:22.192Z,80.36
2022-11-05T22:46:49.953Z,80.34
2022-11-05T22:49:17.786Z,80.20
2022-11-05T22:51:45.951Z,80.10
2022-11-05T22:54:15.039Z,80.23
2022-11-05T22:56:43.949Z,80.39
2022-11-05T22:59:13.917Z,80.31
2022-11-05T23:01:42.218Z,80.14
2022-11-05T23:04:10.091Z,80.30
2022-11-05T23:06:55.149Z,80.40
2022-11-05T23:09:43.326Z,80.20
2022-11-05T23:12:27.217Z,80.32
2022-11-05T23:14:56.754Z,80.31
2022-11-05T23:17:42.416Z,80.52
2022-11-05T23:20:32.418Z,80.28
2022-11-05T23:23:19.962Z,80.52
2022-11-05T23:25:49.493Z,80.31
2022-11-05T23:28:21.117Z,80.44
2022-11-05T23:31:06.287Z,80.44
2022-11-05T23:33:35.513Z,80.31
2022-11-05T23:36:20.976Z,80.17
2022-11-05T23:38:48.735Z,80.07
2022-11-05T23:41:35.053Z,79.76
2022-11-05T23:44:20.454Z,79.59
2022-11-05T23:47:05.799Z,79.31
2022-11-05T23:49:33.630Z,79.07
2022-11-05T23:52:01.379Z,79.22
2022-11-05T23:54:31.140Z,78.99
2022-11-05T23:57:00.263Z,79.23
2022-11-05T23:59:28.053Z,80.46
